CSN7701 LPFR-LECO
Flight info
| Callsign | CSN7701 |
|---|---|
| Flight time | 1h 2m |
| Altitude | 34000 |
| Route | PINEK DCT TURON |
| Aircraft | A320/M-SDE3FGHIRWY/LB1 |
Departure
| Time | 2026-04-16 13:31 |
|---|---|
| Airport | Faro - Gago Coutinho International Airport (LPFR) |
Arrival
| Time | 2026-04-16 14:34 |
|---|---|
| Airport | A Coruña Airport (LECO) |
| Time | Latitude | Longitude | Altitude | Speed | Heading |
|---|---|---|---|---|---|
| 2026-04-16 13:15 | 37.01929 | -7.96975 | 21 ft | 0 kts | 11° |
| 2026-04-16 13:24 | 37.01921 | -7.96976 | 20 ft | 3 kts | 10° |
| 2026-04-16 13:24 | 37.01901 | -7.96981 | 21 ft | 3 kts | 9° |
| 2026-04-16 13:24 | 37.01881 | -7.96985 | 22 ft | 3 kts | 8° |
| 2026-04-16 13:24 | 37.01861 | -7.96988 | 24 ft | 3 kts | 6° |
| 2026-04-16 13:25 | 37.01845 | -7.96990 | 23 ft | 1 kts | 2° |
| 2026-04-16 13:25 | 37.01843 | -7.96990 | 23 ft | 0 kts | 2° |
| 2026-04-16 13:27 | 37.01861 | -7.97008 | 24 ft | 9 kts | 290° |
| 2026-04-16 13:27 | 37.01830 | -7.97183 | 23 ft | 13 kts | 281° |
| 2026-04-16 13:27 | 37.01847 | -7.97304 | 20 ft | 15 kts | 281° |
| 2026-04-16 13:28 | 37.01819 | -7.97389 | 20 ft | 12 kts | 217° |
| 2026-04-16 13:28 | 37.01758 | -7.97468 | 20 ft | 14 kts | 253° |
| 2026-04-16 13:28 | 37.01771 | -7.97594 | 20 ft | 16 kts | 280° |
| 2026-04-16 13:28 | 37.01792 | -7.97739 | 20 ft | 18 kts | 280° |
| 2026-04-16 13:29 | 37.01815 | -7.97902 | 20 ft | 20 kts | 279° |
| 2026-04-16 13:29 | 37.01838 | -7.98067 | 20 ft | 19 kts | 280° |
| 2026-04-16 13:29 | 37.01861 | -7.98235 | 22 ft | 21 kts | 281° |
| 2026-04-16 13:29 | 37.01886 | -7.98407 | 20 ft | 20 kts | 279° |
| 2026-04-16 13:30 | 37.01896 | -7.98507 | 20 ft | 15 kts | 264° |
| 2026-04-16 13:30 | 37.01774 | -7.98583 | 22 ft | 15 kts | 189° |
| 2026-04-16 13:30 | 37.01723 | -7.98553 | 23 ft | 7 kts | 103° |
| 2026-04-16 13:30 | 37.01715 | -7.98509 | 23 ft | 10 kts | 102° |
| 2026-04-16 13:31 | 37.01664 | -7.98153 | 22 ft | 77 kts | 100° |
| 2026-04-16 13:31 | 37.01537 | -7.97236 | 20 ft | 133 kts | 100° |
| 2026-04-16 13:31 | 37.01344 | -7.95939 | 208 ft | 159 kts | 101° |
| 2026-04-16 13:31 | 37.01135 | -7.94587 | 846 ft | 158 kts | 101° |
| 2026-04-16 13:32 | 37.00925 | -7.93222 | 1396 ft | 167 kts | 101° |
| 2026-04-16 13:32 | 37.00697 | -7.91700 | 1734 ft | 190 kts | 101° |
| 2026-04-16 13:32 | 37.00443 | -7.89975 | 2068 ft | 215 kts | 100° |
| 2026-04-16 13:32 | 37.00155 | -7.88027 | 2560 ft | 239 kts | 101° |
| 2026-04-16 13:33 | 36.99848 | -7.85894 | 3180 ft | 256 kts | 97° |
| 2026-04-16 13:33 | 36.99877 | -7.83649 | 4056 ft | 262 kts | 80° |
| 2026-04-16 13:33 | 37.00466 | -7.81445 | 4990 ft | 267 kts | 62° |
| 2026-04-16 13:33 | 37.01569 | -7.79559 | 5880 ft | 273 kts | 45° |
| 2026-04-16 13:34 | 37.03118 | -7.78169 | 6763 ft | 278 kts | 26° |
| 2026-04-16 13:34 | 37.04979 | -7.77445 | 7606 ft | 284 kts | 8° |
| 2026-04-16 13:34 | 37.06961 | -7.77506 | 8440 ft | 289 kts | 348° |
| 2026-04-16 13:34 | 37.08843 | -7.78392 | 9288 ft | 291 kts | 328° |
| 2026-04-16 13:35 | 37.10510 | -7.79846 | 10147 ft | 293 kts | 323° |
| 2026-04-16 13:35 | 37.12230 | -7.81398 | 10494 ft | 315 kts | 323° |
| 2026-04-16 13:35 | 37.14066 | -7.83047 | 10697 ft | 338 kts | 323° |
| 2026-04-16 13:35 | 37.16012 | -7.84798 | 11160 ft | 349 kts | 323° |
| 2026-04-16 13:36 | 37.17999 | -7.86579 | 11851 ft | 353 kts | 323° |
| 2026-04-16 13:36 | 37.20011 | -7.88376 | 12565 ft | 357 kts | 323° |
| 2026-04-16 13:36 | 37.22040 | -7.90197 | 13322 ft | 360 kts | 323° |
| 2026-04-16 13:36 | 37.24090 | -7.92026 | 14059 ft | 364 kts | 324° |
| 2026-04-16 13:37 | 37.26371 | -7.93418 | 14682 ft | 369 kts | 340° |
| 2026-04-16 13:37 | 37.28820 | -7.94440 | 15310 ft | 372 kts | 340° |
| 2026-04-16 13:37 | 37.31286 | -7.95468 | 15939 ft | 375 kts | 340° |
| 2026-04-16 13:37 | 37.33821 | -7.96298 | 16537 ft | 380 kts | 352° |
| 2026-04-16 13:38 | 37.36482 | -7.96315 | 17147 ft | 385 kts | 1° |
| 2026-04-16 13:38 | 37.39168 | -7.96167 | 17780 ft | 388 kts | 1° |
| 2026-04-16 13:38 | 37.41997 | -7.96007 | 18439 ft | 392 kts | 1° |
| 2026-04-16 13:38 | 37.44610 | -7.95859 | 18967 ft | 395 kts | 1° |
| 2026-04-16 13:39 | 37.47370 | -7.95701 | 19516 ft | 398 kts | 1° |
| 2026-04-16 13:39 | 37.50152 | -7.95542 | 20077 ft | 402 kts | 1° |
| 2026-04-16 13:39 | 37.52960 | -7.95383 | 20638 ft | 406 kts | 1° |
| 2026-04-16 13:39 | 37.55828 | -7.95223 | 21189 ft | 409 kts | 1° |
| 2026-04-16 13:40 | 37.58626 | -7.95073 | 21702 ft | 413 kts | 0° |
| 2026-04-16 13:40 | 37.61562 | -7.95263 | 22192 ft | 415 kts | 352° |
| 2026-04-16 13:40 | 37.64437 | -7.95679 | 22684 ft | 418 kts | 352° |
| 2026-04-16 13:40 | 37.67341 | -7.96098 | 23162 ft | 422 kts | 352° |
| 2026-04-16 13:41 | 37.70265 | -7.96516 | 23628 ft | 425 kts | 352° |
| 2026-04-16 13:41 | 37.73218 | -7.96938 | 24028 ft | 428 kts | 352° |
| 2026-04-16 13:41 | 37.76185 | -7.97365 | 24426 ft | 431 kts | 352° |
| 2026-04-16 13:41 | 37.79169 | -7.97795 | 24814 ft | 433 kts | 352° |
| 2026-04-16 13:42 | 37.82170 | -7.98227 | 25199 ft | 435 kts | 352° |
| 2026-04-16 13:42 | 37.85190 | -7.98660 | 25581 ft | 438 kts | 352° |
| 2026-04-16 13:42 | 37.88226 | -7.99099 | 25945 ft | 440 kts | 352° |
| 2026-04-16 13:42 | 37.91277 | -7.99542 | 26321 ft | 442 kts | 352° |
| 2026-04-16 13:43 | 37.94340 | -7.99986 | 26703 ft | 445 kts | 352° |
| 2026-04-16 13:43 | 37.97421 | -8.00435 | 27075 ft | 447 kts | 352° |
| 2026-04-16 13:43 | 38.00520 | -8.00885 | 27444 ft | 449 kts | 352° |
| 2026-04-16 13:43 | 38.03634 | -8.01337 | 27804 ft | 451 kts | 352° |
| 2026-04-16 13:44 | 38.06764 | -8.01792 | 28118 ft | 454 kts | 352° |
| 2026-04-16 13:44 | 38.13028 | -8.02698 | 28195 ft | 452 kts | 352° |
| 2026-04-16 13:45 | 38.19279 | -8.03599 | 28186 ft | 452 kts | 352° |
| 2026-04-16 13:45 | 38.25521 | -8.04504 | 28180 ft | 452 kts | 352° |
| 2026-04-16 13:46 | 38.31762 | -8.05424 | 28185 ft | 451 kts | 352° |
| 2026-04-16 13:46 | 38.38003 | -8.06346 | 28179 ft | 451 kts | 352° |
| 2026-04-16 13:47 | 38.44246 | -8.07255 | 28180 ft | 451 kts | 352° |
| 2026-04-16 13:47 | 38.50529 | -8.08173 | 28176 ft | 451 kts | 351° |
| 2026-04-16 13:48 | 38.56764 | -8.09090 | 28185 ft | 451 kts | 351° |
| 2026-04-16 13:48 | 38.63003 | -8.10010 | 28184 ft | 451 kts | 351° |
| 2026-04-16 13:49 | 38.69236 | -8.10926 | 28184 ft | 451 kts | 351° |
| 2026-04-16 13:49 | 38.75460 | -8.11848 | 28183 ft | 450 kts | 351° |
| 2026-04-16 13:50 | 38.81683 | -8.12770 | 28180 ft | 450 kts | 351° |
| 2026-04-16 13:50 | 38.87905 | -8.13690 | 28184 ft | 450 kts | 351° |
| 2026-04-16 13:51 | 38.94124 | -8.14617 | 28183 ft | 450 kts | 351° |
| 2026-04-16 13:51 | 39.00338 | -8.15543 | 28185 ft | 450 kts | 351° |
| 2026-04-16 13:52 | 39.06559 | -8.16470 | 28185 ft | 450 kts | 351° |
| 2026-04-16 13:52 | 39.12769 | -8.17396 | 28178 ft | 450 kts | 351° |
| 2026-04-16 13:53 | 39.18985 | -8.18322 | 28179 ft | 450 kts | 351° |
| 2026-04-16 13:53 | 39.25199 | -8.19249 | 28176 ft | 450 kts | 351° |
| 2026-04-16 13:54 | 39.31415 | -8.20185 | 28177 ft | 450 kts | 351° |
| 2026-04-16 13:54 | 39.37635 | -8.21124 | 28181 ft | 450 kts | 351° |
| 2026-04-16 13:55 | 39.43858 | -8.22055 | 28182 ft | 450 kts | 351° |
| 2026-04-16 13:55 | 39.50085 | -8.22991 | 28182 ft | 450 kts | 351° |
| 2026-04-16 13:56 | 39.56351 | -8.23949 | 28184 ft | 451 kts | 351° |
| 2026-04-16 13:56 | 39.62580 | -8.24901 | 28186 ft | 451 kts | 351° |
| 2026-04-16 13:57 | 39.68813 | -8.25839 | 28187 ft | 451 kts | 351° |
| 2026-04-16 13:57 | 39.75055 | -8.26775 | 28189 ft | 451 kts | 351° |
| 2026-04-16 13:58 | 39.84409 | -8.28210 | 28192 ft | 451 kts | 351° |
| 2026-04-16 13:58 | 39.90657 | -8.29158 | 28199 ft | 452 kts | 350° |
| 2026-04-16 13:59 | 39.96901 | -8.30115 | 28199 ft | 452 kts | 350° |
| 2026-04-16 13:59 | 40.03150 | -8.31078 | 28197 ft | 453 kts | 350° |
| 2026-04-16 14:00 | 40.09406 | -8.32037 | 28198 ft | 453 kts | 350° |
| 2026-04-16 14:00 | 40.15667 | -8.32992 | 28204 ft | 453 kts | 350° |
| 2026-04-16 14:01 | 40.21926 | -8.33956 | 28212 ft | 453 kts | 350° |
| 2026-04-16 14:01 | 40.28188 | -8.34931 | 28209 ft | 453 kts | 350° |
| 2026-04-16 14:02 | 40.34454 | -8.35911 | 28216 ft | 454 kts | 350° |
| 2026-04-16 14:02 | 40.40711 | -8.36878 | 28219 ft | 454 kts | 350° |
| 2026-04-16 14:03 | 40.47042 | -8.37858 | 28216 ft | 454 kts | 350° |
| 2026-04-16 14:03 | 40.52259 | -8.38672 | 28224 ft | 454 kts | 350° |
| 2026-04-16 14:04 | 40.58541 | -8.39646 | 28223 ft | 455 kts | 350° |
| 2026-04-16 14:04 | 40.64818 | -8.40624 | 28225 ft | 455 kts | 350° |
| 2026-04-16 14:05 | 40.71104 | -8.41605 | 28230 ft | 455 kts | 350° |
| 2026-04-16 14:05 | 40.77391 | -8.42588 | 28236 ft | 455 kts | 349° |
| 2026-04-16 14:06 | 40.83676 | -8.43582 | 28237 ft | 455 kts | 349° |
| 2026-04-16 14:06 | 40.89959 | -8.44571 | 28240 ft | 455 kts | 349° |
| 2026-04-16 14:07 | 40.96254 | -8.45557 | 28240 ft | 455 kts | 349° |
| 2026-04-16 14:07 | 41.02583 | -8.46551 | 28244 ft | 455 kts | 349° |
| 2026-04-16 14:08 | 41.08864 | -8.47555 | 28241 ft | 455 kts | 349° |
| 2026-04-16 14:08 | 41.15152 | -8.48558 | 28225 ft | 455 kts | 349° |
| 2026-04-16 14:09 | 41.21432 | -8.49555 | 28224 ft | 455 kts | 349° |
| 2026-04-16 14:09 | 41.27710 | -8.50547 | 28221 ft | 454 kts | 349° |
| 2026-04-16 14:10 | 41.33990 | -8.51553 | 28221 ft | 454 kts | 349° |
| 2026-04-16 14:10 | 41.40272 | -8.52556 | 28224 ft | 455 kts | 349° |
| 2026-04-16 14:11 | 41.46556 | -8.53560 | 28223 ft | 455 kts | 349° |
| 2026-04-16 14:11 | 41.52846 | -8.54559 | 28225 ft | 455 kts | 349° |
| 2026-04-16 14:12 | 41.59139 | -8.55570 | 28223 ft | 456 kts | 349° |
| 2026-04-16 14:12 | 41.65436 | -8.56581 | 28223 ft | 456 kts | 349° |
| 2026-04-16 14:13 | 41.71739 | -8.57606 | 28220 ft | 456 kts | 349° |
| 2026-04-16 14:13 | 41.78041 | -8.58628 | 28222 ft | 457 kts | 349° |
| 2026-04-16 14:14 | 41.84370 | -8.59561 | 28220 ft | 460 kts | 354° |
| 2026-04-16 14:14 | 41.90797 | -8.58888 | 28225 ft | 465 kts | 3° |
| 2026-04-16 14:15 | 41.97271 | -8.57864 | 28228 ft | 465 kts | 2° |
| 2026-04-16 14:15 | 42.03703 | -8.56849 | 28229 ft | 466 kts | 2° |
| 2026-04-16 14:16 | 42.10174 | -8.56630 | 27940 ft | 461 kts | 352° |
| 2026-04-16 14:16 | 42.13314 | -8.56897 | 27368 ft | 456 kts | 352° |
| 2026-04-16 14:16 | 42.16514 | -8.57175 | 26706 ft | 453 kts | 352° |
| 2026-04-16 14:17 | 42.19645 | -8.57449 | 26070 ft | 450 kts | 352° |
| 2026-04-16 14:17 | 42.22759 | -8.57719 | 25429 ft | 447 kts | 352° |
| 2026-04-16 14:17 | 42.25857 | -8.57985 | 24796 ft | 445 kts | 352° |
| 2026-04-16 14:17 | 42.28943 | -8.58247 | 24165 ft | 443 kts | 352° |
| 2026-04-16 14:18 | 42.32013 | -8.58508 | 23485 ft | 441 kts | 352° |
| 2026-04-16 14:18 | 42.35061 | -8.58770 | 22853 ft | 437 kts | 352° |
| 2026-04-16 14:18 | 42.38075 | -8.59032 | 22166 ft | 433 kts | 352° |
| 2026-04-16 14:18 | 42.41062 | -8.59290 | 21429 ft | 422 kts | 352° |
| 2026-04-16 14:19 | 42.43946 | -8.59536 | 20906 ft | 409 kts | 352° |
| 2026-04-16 14:19 | 42.46741 | -8.59775 | 20392 ft | 396 kts | 352° |
| 2026-04-16 14:19 | 42.49447 | -8.60006 | 19897 ft | 385 kts | 352° |
| 2026-04-16 14:19 | 42.52116 | -8.60239 | 19406 ft | 384 kts | 352° |
| 2026-04-16 14:20 | 42.54780 | -8.60476 | 18918 ft | 382 kts | 352° |
| 2026-04-16 14:20 | 42.57426 | -8.60711 | 18395 ft | 380 kts | 352° |
| 2026-04-16 14:20 | 42.60064 | -8.60945 | 17856 ft | 379 kts | 352° |
| 2026-04-16 14:20 | 42.62685 | -8.61177 | 17333 ft | 377 kts | 352° |
| 2026-04-16 14:21 | 42.65286 | -8.61406 | 16812 ft | 375 kts | 352° |
| 2026-04-16 14:21 | 42.67891 | -8.61633 | 16266 ft | 374 kts | 352° |
| 2026-04-16 14:21 | 42.70484 | -8.61860 | 15724 ft | 372 kts | 352° |
| 2026-04-16 14:21 | 42.73102 | -8.62088 | 15164 ft | 372 kts | 352° |
| 2026-04-16 14:22 | 42.75683 | -8.62316 | 14604 ft | 371 kts | 352° |
| 2026-04-16 14:22 | 42.78254 | -8.62545 | 14043 ft | 370 kts | 352° |
| 2026-04-16 14:22 | 42.80822 | -8.62771 | 13432 ft | 369 kts | 352° |
| 2026-04-16 14:22 | 42.83372 | -8.62994 | 12872 ft | 366 kts | 352° |
| 2026-04-16 14:23 | 42.85902 | -8.63217 | 12306 ft | 364 kts | 352° |
| 2026-04-16 14:23 | 42.88421 | -8.63436 | 11742 ft | 362 kts | 352° |
| 2026-04-16 14:23 | 42.90928 | -8.63653 | 11176 ft | 360 kts | 352° |
| 2026-04-16 14:23 | 42.93415 | -8.63868 | 10673 ft | 356 kts | 352° |
| 2026-04-16 14:24 | 42.95841 | -8.64075 | 10544 ft | 342 kts | 352° |
| 2026-04-16 14:24 | 42.98169 | -8.64274 | 10422 ft | 329 kts | 352° |
| 2026-04-16 14:24 | 43.00399 | -8.64467 | 10181 ft | 313 kts | 352° |
| 2026-04-16 14:24 | 43.02524 | -8.64654 | 9783 ft | 300 kts | 352° |
| 2026-04-16 14:25 | 43.04573 | -8.64835 | 9394 ft | 290 kts | 352° |
| 2026-04-16 14:25 | 43.06549 | -8.65012 | 9010 ft | 280 kts | 352° |
| 2026-04-16 14:25 | 43.08464 | -8.65182 | 8622 ft | 272 kts | 352° |
| 2026-04-16 14:25 | 43.10321 | -8.65348 | 8248 ft | 264 kts | 352° |
| 2026-04-16 14:26 | 43.12134 | -8.65509 | 7878 ft | 258 kts | 352° |
| 2026-04-16 14:26 | 43.13905 | -8.65666 | 7547 ft | 251 kts | 353° |
| 2026-04-16 14:26 | 43.15620 | -8.65818 | 7327 ft | 244 kts | 352° |
| 2026-04-16 14:26 | 43.17299 | -8.65967 | 7112 ft | 239 kts | 352° |
| 2026-04-16 14:27 | 43.18946 | -8.66114 | 6897 ft | 236 kts | 352° |
| 2026-04-16 14:27 | 43.20570 | -8.66261 | 6679 ft | 233 kts | 352° |
| 2026-04-16 14:27 | 43.22173 | -8.66406 | 6446 ft | 229 kts | 353° |
| 2026-04-16 14:27 | 43.23785 | -8.66550 | 6216 ft | 228 kts | 353° |
| 2026-04-16 14:28 | 43.25368 | -8.66692 | 5990 ft | 227 kts | 354° |
| 2026-04-16 14:28 | 43.26936 | -8.66832 | 5750 ft | 226 kts | 355° |
| 2026-04-16 14:28 | 43.28488 | -8.66590 | 5523 ft | 227 kts | 18° |
| 2026-04-16 14:28 | 43.29870 | -8.65554 | 5299 ft | 228 kts | 41° |
| 2026-04-16 14:29 | 43.30873 | -8.63900 | 4993 ft | 227 kts | 63° |
| 2026-04-16 14:29 | 43.31355 | -8.61873 | 4603 ft | 221 kts | 86° |
| 2026-04-16 14:29 | 43.31272 | -8.59809 | 4218 ft | 214 kts | 108° |
| 2026-04-16 14:29 | 43.30777 | -8.57905 | 3859 ft | 211 kts | 115° |
| 2026-04-16 14:30 | 43.30259 | -8.56061 | 3604 ft | 205 kts | 115° |
| 2026-04-16 14:30 | 43.29760 | -8.54266 | 3334 ft | 196 kts | 114° |
| 2026-04-16 14:30 | 43.29293 | -8.52579 | 3115 ft | 182 kts | 114° |
| 2026-04-16 14:30 | 43.28861 | -8.51013 | 2857 ft | 171 kts | 114° |
| 2026-04-16 14:31 | 43.28448 | -8.49521 | 2585 ft | 163 kts | 112° |
| 2026-04-16 14:31 | 43.28058 | -8.48122 | 2329 ft | 154 kts | 112° |
| 2026-04-16 14:31 | 43.27680 | -8.46769 | 1978 ft | 149 kts | 112° |
| 2026-04-16 14:31 | 43.27310 | -8.45451 | 1654 ft | 147 kts | 112° |
| 2026-04-16 14:32 | 43.26936 | -8.44163 | 1387 ft | 145 kts | 114° |
| 2026-04-16 14:32 | 43.26531 | -8.42898 | 1207 ft | 144 kts | 113° |
| 2026-04-16 14:32 | 43.26455 | -8.41577 | 1143 ft | 141 kts | 63° |
| 2026-04-16 14:32 | 43.27009 | -8.40484 | 965 ft | 138 kts | 44° |
| 2026-04-16 14:33 | 43.27764 | -8.39703 | 734 ft | 133 kts | 28° |
| 2026-04-16 14:33 | 43.28558 | -8.39064 | 521 ft | 132 kts | 30° |
| 2026-04-16 14:33 | 43.29343 | -8.38431 | 359 ft | 129 kts | 28° |
| 2026-04-16 14:33 | 43.30013 | -8.37886 | 347 ft | 81 kts | 32° |
| 2026-04-16 14:34 | 43.30244 | -8.37691 | 339 ft | 12 kts | 31° |
| 2026-04-16 14:34 | 43.30304 | -8.37626 | 336 ft | 7 kts | 19° |
| 2026-04-16 14:34 | 43.30300 | -8.37670 | 336 ft | 6 kts | 219° |
| 2026-04-16 14:34 | 43.30252 | -8.37692 | 336 ft | 8 kts | 198° |
| 2026-04-16 14:35 | 43.30223 | -8.37753 | 336 ft | 9 kts | 278° |
| 2026-04-16 14:35 | 43.30246 | -8.37807 | 340 ft | 11 kts | 302° |
| 2026-04-16 14:35 | 43.30273 | -8.37902 | 340 ft | 10 kts | 257° |
| 2026-04-16 14:35 | 43.30232 | -8.37969 | 340 ft | 4 kts | 276° |
| 2026-04-16 14:36 | 43.30242 | -8.37997 | 337 ft | 6 kts | 298° |
| 2026-04-16 14:36 | 43.30250 | -8.38014 | 339 ft | 0 kts | 301° |